Time;durP1;ratioP1;P1;durP2;ratioP2;P2;SDS_P1;SDS_P2;PMS_P1;PMS_P2;Temp;Humidity;BMP_temperature;BMP_pressure;BME280_temperature;BME280_humidity;BME280_pressure;Samples;Min_cycle;Max_cycle;Signal;HPM_P1;HPM_P2
2022/10/03 00:00:12;;;;;;;9.80;3.90;;;;;;;9.37;94.57;99833.73;88806;1290;22781;-75
2022/10/03 00:03:06;;;;;;;7.00;2.80;;;;;;;9.35;94.46;99831.89;88564;1306;22014;-75
2022/10/03 00:05:26;;;;;;;4.90;2.90;;;;;;;9.34;94.62;99831.56;88550;1305;22091;-75
2022/10/03 00:07:49;;;;;;;5.60;3.20;;;;;;;9.33;94.49;99833.70;88709;1299;22063;-74
2022/10/03 00:10:05;;;;;;;7.10;3.40;;;;;;;9.32;94.57;99835.32;88545;1306;22053;-74
2022/10/03 00:12:20;;;;;;;7.40;3.70;;;;;;;9.33;94.57;99835.63;88554;1304;22700;-74
2022/10/03 00:14:31;;;;;;;3.60;3.10;;;;;;;9.33;94.63;99831.63;88577;1304;22044;-74
2022/10/03 00:16:43;;;;;;;7.10;3.00;;;;;;;9.35;94.50;99837.11;88809;1296;22077;-74
2022/10/03 00:18:55;;;;;;;9.00;3.60;;;;;;;9.35;94.63;99834.50;88812;1285;22106;-74
2022/10/03 00:21:17;;;;;;;3.90;2.80;;;;;;;9.35;94.63;99834.98;88572;1290;22580;-74
2022/10/03 00:23:26;;;;;;;7.20;2.80;;;;;;;9.35;94.47;99835.37;88715;1299;22088;-75
2022/10/03 00:25:39;;;;;;;3.10;2.50;;;;;;;9.35;94.62;99831.02;88570;1305;22067;-77
2022/10/03 00:28:01;;;;;;;8.40;2.90;;;;;;;9.35;94.67;99832.92;88585;1304;22079;-77
2022/10/03 00:30:18;;;;;;;8.10;3.30;;;;;;;9.35;94.56;99831.88;88701;1299;22059;-77
2022/10/03 00:32:42;;;;;;;4.10;2.60;;;;;;;9.34;94.60;99830.17;88587;1305;22073;-77
2022/10/03 00:35:00;;;;;;;5.80;3.00;;;;;;;9.36;94.47;99826.98;88814;1296;22085;-77
2022/10/03 00:37:20;;;;;;;7.40;3.80;;;;;;;9.36;94.68;99824.17;88780;1296;22072;-77
2022/10/03 00:39:38;;;;;;;;;;;;;;;9.38;94.59;99820.62;88804;1294;22318;-77
2022/10/03 00:42:34;;;;;;;4.10;3.30;;;;;;;9.36;94.76;99817.91;88747;1299;22085;-77
2022/10/03 00:45:00;;;;;;;5.70;3.30;;;;;;;9.36;94.69;99816.33;88163;1312;22153;-77
2022/10/03 00:47:56;;;;;;;7.60;3.70;;;;;;;9.36;94.46;99814.94;88679;1293;22017;-77
2022/10/03 00:50:30;;;;;;;10.00;3.50;;;;;;;9.36;94.72;99814.07;88387;1294;22082;-77
2022/10/03 00:52:53;;;;;;;6.00;3.60;;;;;;;9.37;94.58;99813.52;88711;1296;22037;-77
2022/10/03 00:55:14;;;;;;;6.30;3.60;;;;;;;9.37;94.48;99809.35;88782;1292;22167;-77
2022/10/03 00:57:42;;;;;;;6.70;3.70;;;;;;;9.36;94.57;99806.58;88790;1297;22724;-77
2022/10/03 01:00:13;;;;;;;5.90;3.50;;;;;;;9.37;94.64;99804.31;88829;1294;22080;-77
2022/10/03 01:02:27;;;;;;;11.40;4.30;;;;;;;9.37;94.75;99795.75;88455;1304;22086;-77
2022/10/03 01:04:46;;;;;;;13.00;4.70;;;;;;;9.38;94.59;99794.16;88821;1299;22633;-77
2022/10/03 01:07:01;;;;;;;8.00;4.50;;;;;;;9.38;94.67;99790.15;88563;1305;22075;-77
2022/10/03 01:09:37;;;;;;;6.50;4.30;;;;;;;9.39;94.57;99792.52;88809;1286;22099;-77
2022/10/03 01:12:04;;;;;;;6.90;4.70;;;;;;;9.39;94.70;99793.25;88563;1294;22157;-77
2022/10/03 01:14:25;;;;;;;7.00;5.30;;;;;;;9.38;94.67;99791.20;88799;1299;22024;-77
2022/10/03 01:16:41;;;;;;;8.70;5.00;;;;;;;9.37;94.67;99789.14;88816;1284;22053;-78
2022/10/03 01:18:57;;;;;;;12.40;4.60;;;;;;;9.37;94.65;99782.16;88576;1303;22048;-77
2022/10/03 01:21:07;;;;;;;6.10;4.80;;;;;;;9.39;94.76;99777.21;88567;1306;22047;-77
2022/10/03 01:23:55;;;;;;;6.60;4.20;;;;;;;9.39;94.72;99774.24;88733;1289;22090;-76
2022/10/03 01:26:11;;;;;;;5.80;4.20;;;;;;;9.40;94.88;99775.05;88568;1306;22143;-76
2022/10/03 01:31:01;;;;;;;7.10;4.90;;;;;;;9.41;94.75;99768.61;88416;1307;22069;-76
2022/10/03 01:33:12;;;;;;;9.80;4.60;;;;;;;9.42;94.84;99770.48;88809;1299;22089;-76
2022/10/03 01:35:26;;;;;;;7.00;4.70;;;;;;;9.43;94.81;99768.17;88801;1283;22066;-76
2022/10/03 01:37:37;;;;;;;7.00;5.00;;;;;;;9.43;94.81;99769.02;88784;1299;22021;-76
2022/10/03 01:39:49;;;;;;;8.90;4.00;;;;;;;9.44;94.76;99761.50;88563;1297;22122;-77
2022/10/03 01:41:59;;;;;;;4.60;4.10;;;;;;;9.43;94.60;99763.47;88556;1304;22330;-77
2022/10/03 01:44:12;;;;;;;10.50;3.90;;;;;;;9.44;94.82;99766.20;88829;1289;22029;-77
2022/10/03 01:46:21;;;;;;;9.50;5.10;;;;;;;9.44;94.85;99767.77;88550;1306;22116;-77
2022/10/03 01:48:33;;;;;;;7.90;4.50;;;;;;;9.43;94.74;99764.67;88812;1299;22636;-77
2022/10/03 01:50:47;;;;;;;11.60;6.10;;;;;;;9.44;94.77;99766.39;88745;1300;22762;-77
2022/10/03 01:52:56;;;;;;;7.00;5.20;;;;;;;9.45;94.81;99763.56;88811;1291;22048;-77
2022/10/03 01:55:07;;;;;;;10.00;5.30;;;;;;;9.45;94.81;99762.00;88585;1305;22125;-77
2022/10/03 01:57:20;;;;;;;8.30;5.30;;;;;;;9.45;94.80;99762.15;88569;1303;22559;-77
2022/10/03 01:59:36;;;;;;;8.90;5.30;;;;;;;9.46;94.85;99764.20;88827;1299;22050;-77
2022/10/03 02:01:49;;;;;;;7.00;5.60;;;;;;;9.47;94.96;99763.47;88793;1298;22093;-77
2022/10/03 02:04:01;;;;;;;5.60;5.10;;;;;;;9.48;94.91;99764.29;88596;1304;22149;-77
2022/10/03 02:06:10;;;;;;;7.50;5.00;;;;;;;9.48;94.96;99760.95;88569;1307;22101;-77
2022/10/03 02:08:28;;;;;;;7.70;5.70;;;;;;;9.49;94.86;99760.05;88563;1304;22076;-77
2022/10/03 02:10:43;;;;;;;8.00;5.40;;;;;;;9.50;94.95;99757.77;88597;1300;22078;-77
2022/10/03 02:12:55;;;;;;;6.00;5.40;;;;;;;9.49;94.88;99755.36;88820;1302;22730;-77
2022/10/03 02:15:07;;;;;;;7.30;5.30;;;;;;;9.49;94.80;99754.85;88804;1293;22052;-77
2022/10/03 02:17:21;;;;;;;6.90;5.30;;;;;;;9.50;94.93;99755.49;88588;1301;22084;-77
2022/10/03 02:19:29;;;;;;;5.80;5.10;;;;;;;9.50;94.90;99752.70;88574;1306;22064;-77
2022/10/03 02:21:34;;;;;;;6.80;5.40;;;;;;;9.51;94.87;99753.01;88689;1305;22652;-77
2022/10/03 02:23:43;;;;;;;6.60;5.50;;;;;;;9.53;94.99;99750.52;88576;1294;22067;-77
2022/10/03 02:25:58;;;;;;;8.60;5.20;;;;;;;9.53;94.91;99750.29;88807;1286;22020;-77
2022/10/03 02:28:35;;;;;;;8.80;6.00;;;;;;;9.55;94.99;99751.98;88821;1291;22020;-76
2022/10/03 02:30:50;;;;;;;8.00;5.60;;;;;;;9.53;94.98;99752.73;88742;1273;22084;-76
2022/10/03 02:33:32;;;;;;;10.30;5.40;;;;;;;9.54;95.09;99754.77;88749;1298;22082;-76
2022/10/03 02:36:06;;;;;;;8.30;5.20;;;;;;;9.54;94.85;99752.89;88770;1280;22086;-76
2022/10/03 02:38:33;;;;;;;7.00;6.30;;;;;;;9.53;95.03;99749.25;88683;1305;22050;-77
2022/10/03 02:41:10;;;;;;;6.70;6.10;;;;;;;9.54;95.01;99745.36;88501;1290;22666;-77
2022/10/03 02:43:42;;;;;;;6.10;5.50;;;;;;;9.55;95.00;99745.71;88486;1306;22592;-77
2022/10/03 02:46:22;;;;;;;7.00;6.30;;;;;;;9.55;94.97;99742.05;88484;1311;22057;-77
2022/10/03 02:48:58;;;;;;;6.10;5.60;;;;;;;9.56;95.10;99736.97;88473;1306;22707;-77
2022/10/03 02:51:31;;;;;;;6.20;5.60;;;;;;;9.57;95.10;99740.23;88469;1307;22059;-77
2022/10/03 02:54:24;;;;;;;7.60;5.30;;;;;;;9.58;94.97;99731.51;88490;1294;22099;-77
2022/10/03 02:56:57;;;;;;;6.30;5.70;;;;;;;9.57;94.95;99729.25;88588;1293;22001;-77
2022/10/03 03:00:03;;;;;;;9.50;6.30;;;;;;;9.58;94.95;99733.73;88735;1284;22101;-77
2022/10/03 03:03:11;;;;;;;6.40;5.80;;;;;;;9.57;94.89;99729.61;88475;1306;22068;-77
2022/10/03 03:06:06;;;;;;;12.20;6.20;;;;;;;9.56;94.91;99731.04;88373;1306;22637;-77
2022/10/03 03:08:25;;;;;;;6.60;6.00;;;;;;;9.58;95.05;99727.50;88670;1300;22636;-77
2022/10/03 03:10:40;;;;;;;6.30;5.70;;;;;;;9.59;95.06;99726.55;88485;1306;21936;-77
2022/10/03 03:13:30;;;;;;;8.80;6.20;;;;;;;9.59;95.11;99723.40;88753;1298;22793;-77
2022/10/03 03:16:26;;;;;;;6.60;5.60;;;;;;;9.58;95.01;99721.91;88719;1300;22086;-77
2022/10/03 03:18:36;;;;;;;8.70;6.20;;;;;;;9.58;94.97;99716.86;88492;1306;22089;-77
2022/10/03 03:20:53;;;;;;;6.20;5.60;;;;;;;9.59;95.04;99719.20;88744;1292;22566;-76
2022/10/03 03:23:15;;;;;;;8.60;5.60;;;;;;;9.60;95.04;99722.31;88507;1299;22071;-76
2022/10/03 03:25:57;;;;;;;6.30;5.80;;;;;;;9.60;95.02;99717.09;88756;1298;22588;-77
2022/10/03 03:28:15;;;;;;;14.60;6.40;;;;;;;9.61;95.15;99722.83;88435;1306;22489;-77
2022/10/03 03:30:22;;;;;;;16.10;6.90;;;;;;;9.62;95.17;99718.61;88760;1283;22042;-77
2022/10/03 03:32:38;;;;;;;10.40;6.90;;;;;;;9.63;95.10;99718.91;88773;1297;22071;-77
2022/10/03 03:34:49;;;;;;;10.10;6.40;;;;;;;9.63;95.08;99714.17;88750;1299;22044;-78
2022/10/03 03:37:00;;;;;;;7.00;6.20;;;;;;;9.64;95.10;99706.98;88495;1306;22073;-78
2022/10/03 03:39:23;;;;;;;8.60;6.20;;;;;;;9.65;95.17;99706.42;88490;1305;22062;-78
2022/10/03 03:41:49;;;;;;;7.90;6.10;;;;;;;9.66;95.19;99705.19;88720;1286;22243;-78
2022/10/03 03:44:18;;;;;;;9.00;7.20;;;;;;;9.65;95.20;99704.32;88747;1299;22040;-78
2022/10/03 03:46:35;;;;;;;6.50;5.70;;;;;;;9.67;95.23;99703.58;88747;1286;22752;-78
2022/10/03 03:49:00;;;;;;;16.10;6.40;;;;;;;9.67;95.18;99703.91;88515;1306;22267;-78
2022/10/03 03:51:27;;;;;;;8.80;6.20;;;;;;;9.68;95.34;99699.52;88728;1299;22057;-78
2022/10/03 03:53:54;;;;;;;9.30;6.90;;;;;;;9.67;95.28;99696.92;88488;1305;22100;-78
2022/10/03 03:56:16;;;;;;;9.40;7.20;;;;;;;9.68;95.34;99700.92;88754;1299;22017;-78
2022/10/03 03:58:32;;;;;;;9.70;6.00;;;;;;;9.69;95.40;99702.77;88731;1289;22162;-78
2022/10/03 04:00:52;;;;;;;10.30;6.70;;;;;;;9.71;95.54;99703.21;88747;1299;22025;-78
2022/10/03 04:03:24;;;;;;;8.40;5.90;;;;;;;9.71;95.44;99699.89;88491;1298;22081;-78
2022/10/03 04:05:42;;;;;;;9.10;6.40;;;;;;;9.71;95.61;99698.84;88471;1304;22064;-78
2022/10/03 04:08:00;;;;;;;13.30;7.10;;;;;;;9.72;95.66;99690.11;88499;1306;22070;-78
2022/10/03 04:10:19;;;;;;;7.80;6.20;;;;;;;9.71;95.50;99685.23;88765;1291;22030;-78
2022/10/03 04:12:36;;;;;;;7.80;6.80;;;;;;;9.73;95.59;99684.83;88749;1278;22512;-78
2022/10/03 04:15:00;;;;;;;8.40;7.20;;;;;;;9.74;95.55;99677.45;88500;1306;22212;-78
2022/10/03 04:20:08;;;;;;;6.40;5.80;;;;;;;9.74;95.71;99667.33;88483;1306;22070;-78
2022/10/03 04:22:27;;;;;;;10.90;6.40;;;;;;;9.76;95.56;99669.02;88476;1306;22054;-78
2022/10/03 04:24:47;;;;;;;7.30;6.20;;;;;;;9.76;95.59;99663.61;88496;1292;22069;-78
2022/10/03 04:27:11;;;;;;;9.20;5.80;;;;;;;9.77;95.79;99662.35;88614;1302;22172;-79
2022/10/03 04:29:47;;;;;;;10.90;7.00;;;;;;;9.78;95.90;99658.47;88590;1301;22216;-79
2022/10/03 04:32:00;;;;;;;7.20;6.50;;;;;;;9.79;95.98;99658.23;88797;1293;22095;-79
2022/10/03 04:34:17;;;;;;;8.30;6.10;;;;;;;9.79;95.97;99654.73;88647;1302;22794;-79
2022/10/03 04:37:13;;;;;;;11.70;6.40;;;;;;;9.81;96.10;99656.05;88825;1281;22018;-78
2022/10/03 04:39:25;;;;;;;6.50;5.90;;;;;;;9.80;96.21;99650.86;88345;1297;22092;-75
2022/10/03 04:41:38;;;;;;;9.20;6.40;;;;;;;9.82;96.37;99650.25;88567;1299;22054;-76
2022/10/03 04:43:51;;;;;;;7.30;5.30;;;;;;;9.83;96.54;99648.82;88487;1298;22066;-76
2022/10/03 04:46:18;;;;;;;6.00;5.40;;;;;;;9.83;96.26;99652.80;88753;1290;22004;-76
2022/10/03 04:48:32;;;;;;;7.70;5.50;;;;;;;9.84;96.53;99650.69;88767;1299;22062;-76
2022/10/03 04:50:40;;;;;;;12.70;6.50;;;;;;;9.84;96.57;99653.81;88487;1306;22056;-76
2022/10/03 04:52:49;;;;;;;7.20;4.70;;;;;;;9.86;96.53;99649.77;88505;1297;22642;-77
2022/10/03 04:54:59;;;;;;;9.40;6.40;;;;;;;9.87;96.57;99651.61;88762;1291;21951;-76
2022/10/03 04:57:10;;;;;;;6.80;5.90;;;;;;;9.88;96.57;99651.35;88485;1298;22728;-76
2022/10/03 04:59:42;;;;;;;8.20;6.30;;;;;;;9.89;96.71;99646.44;88514;1298;22072;-76
2022/10/03 05:01:52;;;;;;;6.40;4.80;;;;;;;9.89;96.92;99646.45;88495;1306;22066;-76
2022/10/03 05:04:06;;;;;;;5.90;5.30;;;;;;;9.90;97.00;99647.10;88771;1294;22058;-76
2022/10/03 05:06:26;;;;;;;8.90;5.30;;;;;;;9.90;96.97;99649.19;88682;1293;22661;-76
2022/10/03 05:08:39;;;;;;;6.50;5.20;;;;;;;9.92;97.06;99645.09;88510;1297;22048;-76
2022/10/03 05:11:02;;;;;;;7.10;5.80;;;;;;;9.93;97.30;99645.23;88780;1288;22028;-75
2022/10/03 05:13:15;;;;;;;6.90;5.60;;;;;;;9.94;97.16;99648.33;88388;1299;328676;-75
2022/10/03 05:15:25;;;;;;;10.60;5.60;;;;;;;9.95;97.23;99645.65;88752;1298;22677;-75
2022/10/03 05:17:43;;;;;;;8.90;5.90;;;;;;;9.97;97.29;99643.84;88490;1306;21931;-75
2022/10/03 05:20:08;;;;;;;11.00;5.60;;;;;;;9.98;97.38;99638.71;88486;1306;22115;-76
2022/10/03 05:22:43;;;;;;;9.50;5.30;;;;;;;9.99;97.59;99633.58;88775;1294;22073;-76
2022/10/03 05:24:56;;;;;;;8.60;5.50;;;;;;;10.01;97.55;99633.17;88698;1297;22027;-75
2022/10/03 05:27:19;;;;;;;6.40;4.90;;;;;;;10.02;97.77;99630.66;88774;1293;22043;-75
2022/10/03 05:29:34;;;;;;;7.80;5.80;;;;;;;10.04;97.62;99633.36;88492;1298;22080;-75
2022/10/03 05:31:49;;;;;;;5.70;5.10;;;;;;;10.06;97.81;99630.82;88495;1298;22116;-76
2022/10/03 05:34:07;;;;;;;7.70;5.50;;;;;;;10.08;97.68;99630.19;88504;1305;22117;-75
2022/10/03 05:36:27;;;;;;;8.80;5.50;;;;;;;10.11;97.84;99629.90;88489;1306;22061;-76
2022/10/03 05:38:59;;;;;;;7.10;5.10;;;;;;;10.13;97.77;99631.05;88761;1288;21953;-76
2022/10/03 05:41:09;;;;;;;8.50;4.70;;;;;;;10.14;97.73;99630.10;88756;1295;22135;-75
2022/10/03 05:43:27;;;;;;;5.90;4.80;;;;;;;10.15;97.96;99630.92;88493;1292;22062;-76
2022/10/03 05:45:46;;;;;;;9.40;4.80;;;;;;;10.16;97.95;99633.16;88478;1298;22069;-73
2022/10/03 05:47:55;;;;;;;8.70;5.80;;;;;;;10.17;98.00;99630.64;88406;1307;22129;-75
2022/10/03 05:50:27;;;;;;;5.50;5.00;;;;;;;10.20;97.89;99628.60;88479;1306;22612;-75
2022/10/03 05:52:57;;;;;;;7.00;4.40;;;;;;;10.22;98.11;99628.48;88681;1299;22898;-71
2022/10/03 05:55:24;;;;;;;6.00;4.40;;;;;;;10.24;98.04;99630.16;88771;1299;22029;-75
2022/10/03 05:58:24;;;;;;;7.50;4.70;;;;;;;10.27;98.07;99630.92;88731;1288;22117;-76
2022/10/03 06:00:37;;;;;;;6.40;4.20;;;;;;;10.30;98.22;99625.52;88627;1299;22024;-76
2022/10/03 06:03:29;;;;;;;5.10;4.20;;;;;;;10.35;98.22;99627.06;88486;1306;22090;-74
2022/10/03 06:05:43;;;;;;;6.50;4.20;;;;;;;10.38;98.16;99628.25;88752;1293;22106;-75
2022/10/03 06:08:13;;;;;;;6.20;4.40;;;;;;;10.42;98.00;99630.02;88493;1298;22090;-74
2022/10/03 06:10:43;;;;;;;;;;;;;;;10.45;98.19;99627.09;88758;1299;22926;-75
2022/10/03 06:12:53;;;;;;;5.00;3.70;;;;;;;10.44;98.27;99628.16;88481;1299;22083;-75
2022/10/03 06:15:17;;;;;;;6.20;4.20;;;;;;;10.48;98.21;99622.92;88476;1292;22014;-76
2022/10/03 06:17:56;;;;;;;6.80;4.60;;;;;;;10.51;98.07;99621.90;88604;1302;22647;-76
2022/10/03 06:20:12;;;;;;;6.00;4.30;;;;;;;10.54;98.29;99618.77;88759;1299;22086;-76
2022/10/03 06:23:04;;;;;;;6.70;4.40;;;;;;;10.56;98.04;99613.06;88491;1306;22167;-76
2022/10/03 06:25:51;;;;;;;11.70;6.00;;;;;;;10.58;98.12;99608.61;88496;1291;22119;-77
2022/10/03 06:28:50;;;;;;;5.40;4.20;;;;;;;10.61;98.02;99608.33;88717;1299;22051;-77
2022/10/03 06:31:21;;;;;;;7.20;4.00;;;;;;;10.62;97.97;99602.67;88376;1304;22054;-76
2022/10/03 06:34:22;;;;;;;4.20;3.60;;;;;;;10.63;97.89;99603.48;88409;1301;22715;-77
2022/10/03 06:36:43;;;;;;;4.80;3.70;;;;;;;10.63;97.69;99603.16;88340;1288;22086;-78
2022/10/03 06:39:33;;;;;;;4.00;3.60;;;;;;;10.62;97.76;99602.84;88515;1298;22072;-77
2022/10/03 06:42:34;;;;;;;6.50;3.60;;;;;;;10.63;97.77;99605.07;88680;1299;22685;-77
2022/10/03 06:45:26;;;;;;;4.70;3.40;;;;;;;10.63;97.80;99604.05;88504;1306;22100;-78
2022/10/03 06:47:51;;;;;;;3.30;2.60;;;;;;;10.61;97.90;99601.34;88482;1284;22061;-78
2022/10/03 06:50:27;;;;;;;3.40;3.00;;;;;;;10.60;97.78;99602.59;88419;1301;22041;-77
2022/10/03 06:52:53;;;;;;;3.40;3.10;;;;;;;10.60;97.82;99603.14;88772;1291;22016;-76
2022/10/03 06:55:46;;;;;;;4.80;2.80;;;;;;;10.61;97.96;99607.09;88485;1298;22060;-76
2022/10/03 06:58:38;;;;;;;4.40;3.50;;;;;;;10.64;98.02;99607.62;88476;1306;22062;-76
2022/10/03 07:00:57;;;;;;;7.10;3.20;;;;;;;10.68;98.20;99605.31;88655;1293;22052;-76
2022/10/03 07:03:46;;;;;;;3.00;2.70;;;;;;;10.71;98.27;99604.33;88667;1299;22196;-77
2022/10/03 07:06:26;;;;;;;4.60;2.40;;;;;;;10.72;98.34;99600.06;88763;1286;22045;-77
2022/10/03 07:09:30;;;;;;;4.10;2.70;;;;;;;10.75;98.17;99607.28;88469;1306;22322;-76
2022/10/03 07:11:54;;;;;;;3.80;3.40;;;;;;;10.78;98.27;99601.84;88756;1284;22052;-76
2022/10/03 07:14:35;;;;;;;3.50;2.40;;;;;;;10.82;98.35;99600.74;88496;1302;22130;-75
2022/10/03 07:17:28;;;;;;;3.30;2.00;;;;;;;10.86;98.44;99598.14;88264;1306;22129;-74
2022/10/03 07:19:55;;;;;;;4.60;2.40;;;;;;;10.88;98.33;99599.95;88545;1296;22023;-74
2022/10/03 07:22:44;;;;;;;3.20;2.50;;;;;;;10.90;98.23;99604.59;88751;1287;22027;-77
2022/10/03 07:25:12;;;;;;;4.10;2.00;;;;;;;10.91;98.16;99611.84;88667;1299;22816;-77
2022/10/03 07:27:29;;;;;;;2.60;2.20;;;;;;;10.95;98.13;99613.92;88757;1297;22026;-77
2022/10/03 07:30:11;;;;;;;3.20;1.90;;;;;;;10.99;98.20;99612.83;88487;1306;22766;-77
2022/10/03 07:33:07;;;;;;;4.90;2.20;;;;;;;11.06;98.28;99607.89;88591;1299;22054;-77
2022/10/03 07:42:08;;;;;;;5.30;2.40;;;;;;;11.56;99.14;99601.95;88611;1297;22052;-77
2022/10/03 07:45:01;;;;;;;4.10;2.00;;;;;;;11.72;98.71;99608.06;88070;1307;22155;-77
2022/10/03 07:47:59;;;;;;;2.60;1.80;;;;;;;11.84;98.29;99601.83;88762;1285;22657;-77
2022/10/03 07:50:54;;;;;;;3.60;2.20;;;;;;;11.91;97.62;99604.05;88388;1301;22765;-77
2022/10/03 07:53:15;;;;;;;3.60;1.60;;;;;;;11.98;97.12;99602.13;88475;1302;22626;-77
2022/10/03 07:55:32;;;;;;;4.30;2.50;;;;;;;11.96;96.41;99600.30;88757;1283;22606;-77
2022/10/03 07:57:52;;;;;;;3.80;1.80;;;;;;;11.94;96.04;99608.83;88623;1299;22076;-77
2022/10/03 08:00:23;;;;;;;4.80;1.80;;;;;;;11.97;96.26;99609.67;88755;1288;22065;-77
2022/10/03 08:02:45;;;;;;;3.30;1.80;;;;;;;11.99;95.97;99608.86;88751;1298;22011;-77
2022/10/03 08:05:06;;;;;;;2.10;1.50;;;;;;;11.98;95.68;99612.05;88497;1284;22103;-77
2022/10/03 08:07:31;;;;;;;4.80;2.70;;;;;;;11.97;95.48;99614.92;88740;1287;22123;-77
2022/10/03 08:10:12;;;;;;;2.90;1.80;;;;;;;11.96;95.34;99613.41;88444;1291;22090;-77
2022/10/03 08:12:46;;;;;;;2.60;1.50;;;;;;;11.94;95.18;99608.43;88278;1292;22094;-77
2022/10/03 08:15:03;;;;;;;4.50;1.80;;;;;;;11.92;94.72;99609.27;88753;1280;22032;-77
2022/10/03 08:17:40;;;;;;;2.80;1.80;;;;;;;11.90;94.72;99610.75;88621;1298;22131;-77
2022/10/03 08:20:28;;;;;;;2.80;1.90;;;;;;;11.95;95.13;99609.96;88750;1287;22101;-77
2022/10/03 08:22:44;;;;;;;6.90;1.90;;;;;;;11.99;95.12;99608.52;88767;1298;22579;-77
2022/10/03 08:25:30;;;;;;;2.70;1.60;;;;;;;12.04;94.98;99608.58;88497;1306;22062;-77
2022/10/03 08:27:53;;;;;;;3.00;2.20;;;;;;;12.12;95.19;99608.11;88720;1297;22060;-77
2022/10/03 08:30:24;;;;;;;2.80;1.70;;;;;;;12.18;94.86;99606.20;88775;1284;22654;-77
2022/10/03 08:33:13;;;;;;;2.50;1.60;;;;;;;12.19;94.20;99599.89;88492;1306;22060;-77
2022/10/03 08:35:34;;;;;;;4.30;2.50;;;;;;;12.15;93.62;99600.79;88144;1311;22171;-77
2022/10/03 08:38:26;;;;;;;3.20;2.10;;;;;;;12.08;93.10;99606.90;88375;1306;22066;-77
2022/10/03 08:41:15;;;;;;;2.60;2.00;;;;;;;12.03;92.99;99606.52;88740;1283;22016;-77
2022/10/03 08:44:13;;;;;;;2.60;1.80;;;;;;;11.98;92.84;99604.23;88591;1288;22013;-77
2022/10/03 08:46:37;;;;;;;6.00;2.20;;;;;;;11.95;93.08;99611.20;88604;1283;22065;-77
2022/10/03 08:49:03;;;;;;;5.90;2.10;;;;;;;11.95;93.19;99615.04;88754;1287;22104;-77
2022/10/03 08:52:06;;;;;;;3.20;2.10;;;;;;;11.94;93.30;99608.78;88776;1284;22042;-77
2022/10/03 08:54:40;;;;;;;2.60;2.00;;;;;;;11.90;92.87;99610.08;88760;1287;22057;-77
2022/10/03 08:57:05;;;;;;;4.70;2.60;;;;;;;11.89;93.08;99608.89;88765;1296;22304;-77
2022/10/03 08:59:38;;;;;;;4.30;2.50;;;;;;;11.88;93.22;99610.66;88742;1294;22103;-77
2022/10/03 09:02:06;;;;;;;2.40;2.20;;;;;;;11.89;93.21;99616.73;88690;1282;22045;-77
2022/10/03 09:05:10;;;;;;;3.00;2.20;;;;;;;11.90;93.06;99617.58;88513;1298;22075;-77
2022/10/03 09:07:45;;;;;;;3.10;2.20;;;;;;;11.95;93.45;99620.27;88780;1287;22115;-77
2022/10/03 09:10:19;;;;;;;2.40;2.00;;;;;;;12.02;93.61;99626.34;88506;1306;22539;-77
2022/10/03 09:13:02;;;;;;;2.80;2.60;;;;;;;12.04;93.11;99624.15;88502;1306;22095;-77
2022/10/03 09:15:44;;;;;;;3.60;2.30;;;;;;;12.03;92.95;99626.14;88740;1299;22069;-77
2022/10/03 09:18:28;;;;;;;2.90;2.40;;;;;;;12.05;92.92;99625.10;88456;1306;22185;-77
2022/10/03 09:21:25;;;;;;;2.90;2.30;;;;;;;12.05;92.98;99625.45;88728;1286;22032;-77
2022/10/03 09:24:13;;;;;;;7.10;2.90;;;;;;;12.03;92.95;99629.44;88732;1299;22083;-75
2022/10/03 09:27:11;;;;;;;3.90;2.70;;;;;;;12.02;92.92;99631.08;88507;1306;22067;-75
2022/10/03 09:30:16;;;;;;;2.50;2.00;;;;;;;12.01;93.13;99637.25;88498;1305;22083;-75
2022/10/03 09:32:53;;;;;;;3.80;2.30;;;;;;;12.01;93.12;99636.71;88567;1299;22059;-76
2022/10/03 09:35:28;;;;;;;3.30;2.50;;;;;;;11.99;92.97;99633.31;88539;1299;22007;-77
2022/10/03 09:37:56;;;;;;;3.40;2.80;;;;;;;11.98;93.01;99633.91;88748;1298;22631;-77
2022/10/03 09:41:11;;;;;;;6.80;2.50;;;;;;;11.98;92.99;99638.13;88750;1281;22114;-76
2022/10/03 09:43:47;;;;;;;2.60;2.20;;;;;;;11.95;92.94;99655.58;88215;1291;22133;-76
2022/10/03 09:46:23;;;;;;;3.50;3.20;;;;;;;11.99;93.12;99657.46;88590;1298;22043;-76
2022/10/03 09:48:43;;;;;;;4.90;2.50;;;;;;;12.02;93.14;99663.04;88598;1281;22051;-76
2022/10/03 09:51:16;;;;;;;3.00;2.80;;;;;;;12.06;92.98;99658.98;88714;1299;22147;-76
2022/10/03 09:53:38;;;;;;;5.20;2.60;;;;;;;12.11;93.38;99658.54;88831;1294;22085;-76
2022/10/03 09:56:00;;;;;;;9.10;3.30;;;;;;;12.18;93.16;99660.08;88811;1296;22094;-77
2022/10/03 09:58:17;;;;;;;5.70;3.60;;;;;;;12.24;93.16;99664.27;88811;1280;22183;-77
2022/10/03 10:00:32;;;;;;;4.50;2.50;;;;;;;12.33;93.20;99661.64;88808;1284;22056;-77
2022/10/03 10:03:25;;;;;;;2.50;2.20;;;;;;;12.43;93.42;99668.09;88800;1283;22028;-76
2022/10/03 10:05:58;;;;;;;3.10;2.60;;;;;;;12.50;92.59;99668.08;88450;1288;22834;-76
2022/10/03 10:08:32;;;;;;;3.50;2.50;;;;;;;12.57;92.82;99675.14;88833;1288;22085;-76
2022/10/03 10:11:10;;;;;;;3.40;2.20;;;;;;;12.63;92.43;99675.49;88792;1284;22029;-76
2022/10/03 10:13:47;;;;;;;3.40;2.30;;;;;;;12.63;92.30;99684.27;88791;1285;22021;-76
2022/10/03 10:16:17;;;;;;;4.00;2.50;;;;;;;12.64;92.28;99686.84;88572;1298;22058;-76
2022/10/03 10:19:27;;;;;;;4.80;2.90;;;;;;;12.66;92.19;99696.01;88584;1301;22038;-76
2022/10/03 10:21:53;;;;;;;3.60;2.80;;;;;;;12.55;91.72;99695.58;88521;1289;22050;-76
2022/10/03 10:24:20;;;;;;;3.40;3.10;;;;;;;12.54;91.88;99699.49;88807;1286;22067;-77
2022/10/03 10:27:10;;;;;;;4.40;2.90;;;;;;;12.51;92.07;99697.95;88776;1296;22586;-77
2022/10/03 10:30:05;;;;;;;6.10;3.10;;;;;;;12.49;92.53;99710.07;88667;1296;22047;-77
2022/10/03 10:33:13;;;;;;;3.90;2.40;;;;;;;12.48;92.45;99705.77;88382;1306;22058;-77
2022/10/03 10:35:51;;;;;;;4.00;2.70;;;;;;;12.49;92.64;99705.39;88354;1306;22233;-77
2022/10/03 10:38:37;;;;;;;4.10;2.80;;;;;;;12.48;92.54;99713.14;88581;1300;22066;-77
2022/10/03 10:41:18;;;;;;;9.80;3.10;;;;;;;12.43;92.43;99716.73;88418;1303;22364;-77
2022/10/03 10:44:20;;;;;;;2.50;1.60;;;;;;;12.37;92.27;99728.96;88629;1296;22028;-78
2022/10/03 10:47:03;;;;;;;3.00;1.40;;;;;;;12.34;92.29;99739.42;88559;1280;22059;-77
2022/10/03 10:49:44;;;;;;;4.10;1.30;;;;;;;12.33;92.52;99743.49;88758;1293;22031;-77
2022/10/03 10:52:23;;;;;;;1.60;1.20;;;;;;;12.30;92.32;99748.04;88489;1305;22708;-76
2022/10/03 10:55:07;;;;;;;3.00;1.10;;;;;;;12.25;92.51;99748.34;88474;1306;22021;-77
2022/10/03 10:57:40;;;;;;;1.20;1.00;;;;;;;12.20;92.52;99755.59;88749;1299;22056;-76
2022/10/03 11:00:31;;;;;;;1.30;0.90;;;;;;;12.19;92.76;99761.23;88509;1306;22651;-76
2022/10/03 11:03:35;;;;;;;2.30;1.00;;;;;;;12.17;92.35;99765.23;88770;1287;22027;-76
2022/10/03 11:06:27;;;;;;;1.00;0.90;;;;;;;12.22;92.06;99778.75;88643;1289;22643;-77
2022/10/03 11:09:27;;;;;;;1.10;0.90;;;;;;;12.30;91.99;99786.16;88743;1297;22639;-76
2022/10/03 11:11:57;;;;;;;;;;;;;;;12.41;90.09;99787.50;88775;1287;22276;-76
2022/10/03 11:14:31;;;;;;;;;;;;;;;12.37;90.15;99791.06;88771;1287;22257;-75
2022/10/03 11:17:30;;;;;;;0.60;0.50;;;;;;;12.37;89.34;99797.53;88813;1287;22046;-75
2022/10/03 11:20:33;;;;;;;2.20;0.70;;;;;;;12.43;87.91;99801.26;88646;1299;22121;-75
2022/10/03 11:23:10;;;;;;;0.70;0.70;;;;;;;12.47;87.12;99810.64;88636;1290;22196;-75
2022/10/03 11:26:04;;;;;;;1.20;0.90;;;;;;;12.51;87.22;99823.70;88562;1305;22145;-75
2022/10/03 11:28:52;;;;;;;0.80;0.80;;;;;;;12.59;87.51;99827.66;88565;1304;22668;-76
2022/10/03 11:31:58;;;;;;;0.90;0.60;;;;;;;12.73;85.97;99834.73;88780;1291;22626;-77
2022/10/03 11:34:38;;;;;;;1.10;0.70;;;;;;;12.72;83.65;99836.52;88496;1285;22046;-77
2022/10/03 11:37:03;;;;;;;1.10;0.80;;;;;;;12.63;81.45;99840.70;88803;1285;22021;-77
2022/10/03 11:39:13;;;;;;;0.70;0.60;;;;;;;12.55;81.77;99843.08;88814;1296;22665;-76
2022/10/03 11:41:23;;;;;;;1.60;1.10;;;;;;;12.50;80.41;99847.00;88806;1296;22049;-76
2022/10/03 11:44:10;;;;;;;0.80;0.80;;;;;;;12.46;80.40;99840.60;88813;1294;22739;-76
2022/10/03 11:46:30;;;;;;;1.50;0.80;;;;;;;12.44;78.59;99846.30;88704;1299;22213;-76
2022/10/03 11:48:39;;;;;;;2.70;1.20;;;;;;;12.42;75.80;99843.59;88811;1296;22083;-77
2022/10/03 11:50:48;;;;;;;3.00;1.00;;;;;;;12.43;76.87;99837.29;88815;1296;22021;-77
2022/10/03 11:53:13;;;;;;;4.80;0.80;;;;;;;12.45;76.49;99840.14;88560;1305;22073;-76
2022/10/03 11:55:32;;;;;;;2.70;1.10;;;;;;;12.49;76.79;99836.77;88821;1296;22095;-76
2022/10/03 11:57:39;;;;;;;2.20;0.90;;;;;;;12.54;75.52;99840.31;88718;1287;22489;-76